sensor_id;sensor_type;location;lat;lon;timestamp;P1;durP1;ratioP1;P2;durP2;ratioP2
18338;SDS011;9295;44.484;11.240;2023-01-25T00:02:04;31.27;;;20.07;;
18338;SDS011;9295;44.484;11.240;2023-01-25T00:04:34;23.80;;;18.10;;
18338;SDS011;9295;44.484;11.240;2023-01-25T00:07:04;29.57;;;20.03;;
18338;SDS011;9295;44.484;11.240;2023-01-25T00:09:32;25.07;;;18.80;;
18338;SDS011;9295;44.484;11.240;2023-01-25T00:12:01;30.60;;;18.03;;
18338;SDS011;9295;44.484;11.240;2023-01-25T00:14:29;24.93;;;18.90;;
18338;SDS011;9295;44.484;11.240;2023-01-25T00:16:58;28.50;;;19.10;;
18338;SDS011;9295;44.484;11.240;2023-01-25T00:19:26;24.07;;;18.90;;
18338;SDS011;9295;44.484;11.240;2023-01-25T00:21:56;29.00;;;20.10;;
18338;SDS011;9295;44.484;11.240;2023-01-25T00:24:25;27.10;;;19.40;;
18338;SDS011;9295;44.484;11.240;2023-01-25T00:26:53;25.93;;;19.13;;
18338;SDS011;9295;44.484;11.240;2023-01-25T00:29:22;25.47;;;19.37;;
18338;SDS011;9295;44.484;11.240;2023-01-25T00:31:57;28.70;;;19.03;;
18338;SDS011;9295;44.484;11.240;2023-01-25T00:34:56;26.80;;;18.80;;
18338;SDS011;9295;44.484;11.240;2023-01-25T00:37:28;27.30;;;17.80;;
18338;SDS011;9295;44.484;11.240;2023-01-25T00:40:03;27.43;;;17.73;;
18338;SDS011;9295;44.484;11.240;2023-01-25T00:42:32;23.90;;;17.80;;
18338;SDS011;9295;44.484;11.240;2023-01-25T00:45:00;21.17;;;16.63;;
18338;SDS011;9295;44.484;11.240;2023-01-25T00:47:29;23.10;;;18.00;;
18338;SDS011;9295;44.484;11.240;2023-01-25T00:50:03;24.90;;;17.33;;
18338;SDS011;9295;44.484;11.240;2023-01-25T00:52:34;23.40;;;17.37;;
18338;SDS011;9295;44.484;11.240;2023-01-25T00:55:03;22.60;;;16.60;;
18338;SDS011;9295;44.484;11.240;2023-01-25T00:57:32;22.97;;;16.60;;
18338;SDS011;9295;44.484;11.240;2023-01-25T01:00:01;21.67;;;16.97;;
18338;SDS011;9295;44.484;11.240;2023-01-25T01:02:30;20.83;;;16.17;;
18338;SDS011;9295;44.484;11.240;2023-01-25T01:04:59;23.70;;;16.60;;
18338;SDS011;9295;44.484;11.240;2023-01-25T01:07:30;23.47;;;17.03;;
18338;SDS011;9295;44.484;11.240;2023-01-25T01:10:00;23.20;;;17.13;;
18338;SDS011;9295;44.484;11.240;2023-01-25T01:12:28;24.33;;;16.33;;
18338;SDS011;9295;44.484;11.240;2023-01-25T01:14:57;20.10;;;15.50;;
18338;SDS011;9295;44.484;11.240;2023-01-25T01:17:25;20.27;;;15.63;;
18338;SDS011;9295;44.484;11.240;2023-01-25T01:19:54;20.63;;;16.63;;
18338;SDS011;9295;44.484;11.240;2023-01-25T01:22:22;21.93;;;16.43;;
18338;SDS011;9295;44.484;11.240;2023-01-25T01:24:51;22.43;;;17.40;;
18338;SDS011;9295;44.484;11.240;2023-01-25T01:27:21;27.27;;;18.27;;
18338;SDS011;9295;44.484;11.240;2023-01-25T01:29:49;28.00;;;19.43;;
18338;SDS011;9295;44.484;11.240;2023-01-25T01:32:18;25.77;;;18.40;;
18338;SDS011;9295;44.484;11.240;2023-01-25T01:34:48;29.43;;;20.20;;
18338;SDS011;9295;44.484;11.240;2023-01-25T01:37:17;26.80;;;19.03;;
18338;SDS011;9295;44.484;11.240;2023-01-25T01:39:45;26.63;;;19.87;;
18338;SDS011;9295;44.484;11.240;2023-01-25T01:42:14;24.77;;;18.70;;
18338;SDS011;9295;44.484;11.240;2023-01-25T01:44:44;26.77;;;19.57;;
18338;SDS011;9295;44.484;11.240;2023-01-25T01:47:16;25.77;;;18.97;;
18338;SDS011;9295;44.484;11.240;2023-01-25T01:49:53;25.30;;;18.73;;
18338;SDS011;9295;44.484;11.240;2023-01-25T01:52:30;24.40;;;19.50;;
18338;SDS011;9295;44.484;11.240;2023-01-25T01:55:03;24.50;;;18.70;;
18338;SDS011;9295;44.484;11.240;2023-01-25T01:57:35;25.43;;;18.03;;
18338;SDS011;9295;44.484;11.240;2023-01-25T02:00:11;23.90;;;18.57;;
18338;SDS011;9295;44.484;11.240;2023-01-25T02:02:43;26.83;;;19.40;;
18338;SDS011;9295;44.484;11.240;2023-01-25T02:05:15;23.30;;;17.10;;
18338;SDS011;9295;44.484;11.240;2023-01-25T02:07:47;25.63;;;18.73;;
18338;SDS011;9295;44.484;11.240;2023-01-25T02:10:18;26.97;;;19.00;;
18338;SDS011;9295;44.484;11.240;2023-01-25T02:12:49;26.60;;;18.87;;
18338;SDS011;9295;44.484;11.240;2023-01-25T02:15:21;24.40;;;19.60;;
18338;SDS011;9295;44.484;11.240;2023-01-25T02:17:49;27.17;;;19.53;;
18338;SDS011;9295;44.484;11.240;2023-01-25T02:20:20;26.27;;;19.20;;
18338;SDS011;9295;44.484;11.240;2023-01-25T02:22:54;31.70;;;20.70;;
18338;SDS011;9295;44.484;11.240;2023-01-25T02:25:34;29.17;;;20.97;;
18338;SDS011;9295;44.484;11.240;2023-01-25T02:28:05;26.53;;;19.57;;
18338;SDS011;9295;44.484;11.240;2023-01-25T02:30:38;30.33;;;20.70;;
18338;SDS011;9295;44.484;11.240;2023-01-25T02:33:07;25.37;;;19.20;;
18338;SDS011;9295;44.484;11.240;2023-01-25T02:35:36;28.10;;;21.40;;
18338;SDS011;9295;44.484;11.240;2023-01-25T02:38:08;31.83;;;20.90;;
18338;SDS011;9295;44.484;11.240;2023-01-25T02:40:42;30.73;;;21.73;;
18338;SDS011;9295;44.484;11.240;2023-01-25T02:43:14;26.80;;;19.57;;
18338;SDS011;9295;44.484;11.240;2023-01-25T02:45:44;28.97;;;20.87;;
18338;SDS011;9295;44.484;11.240;2023-01-25T02:48:17;29.53;;;21.70;;
18338;SDS011;9295;44.484;11.240;2023-01-25T02:50:45;35.03;;;22.33;;
18338;SDS011;9295;44.484;11.240;2023-01-25T02:53:14;28.93;;;21.43;;
18338;SDS011;9295;44.484;11.240;2023-01-25T02:55:44;32.43;;;22.90;;
18338;SDS011;9295;44.484;11.240;2023-01-25T02:58:12;32.00;;;22.60;;
18338;SDS011;9295;44.484;11.240;2023-01-25T03:00:41;32.90;;;22.80;;
18338;SDS011;9295;44.484;11.240;2023-01-25T03:03:09;29.37;;;22.80;;
18338;SDS011;9295;44.484;11.240;2023-01-25T03:05:38;32.50;;;23.00;;
18338;SDS011;9295;44.484;11.240;2023-01-25T03:08:06;29.07;;;21.13;;
18338;SDS011;9295;44.484;11.240;2023-01-25T03:10:35;30.00;;;23.10;;
18338;SDS011;9295;44.484;11.240;2023-01-25T03:13:06;31.97;;;21.90;;
18338;SDS011;9295;44.484;11.240;2023-01-25T03:15:34;31.90;;;22.37;;
18338;SDS011;9295;44.484;11.240;2023-01-25T03:18:03;32.90;;;21.80;;
18338;SDS011;9295;44.484;11.240;2023-01-25T03:20:31;26.77;;;20.93;;
18338;SDS011;9295;44.484;11.240;2023-01-25T03:23:01;29.17;;;22.30;;
18338;SDS011;9295;44.484;11.240;2023-01-25T03:25:30;31.43;;;22.73;;
18338;SDS011;9295;44.484;11.240;2023-01-25T03:28:10;29.30;;;22.23;;
18338;SDS011;9295;44.484;11.240;2023-01-25T03:30:39;30.50;;;21.53;;
18338;SDS011;9295;44.484;11.240;2023-01-25T03:33:07;31.30;;;22.40;;
18338;SDS011;9295;44.484;11.240;2023-01-25T03:35:36;32.73;;;23.73;;
18338;SDS011;9295;44.484;11.240;2023-01-25T03:38:06;36.37;;;22.67;;
18338;SDS011;9295;44.484;11.240;2023-01-25T03:40:35;30.83;;;21.03;;
18338;SDS011;9295;44.484;11.240;2023-01-25T03:43:03;35.50;;;23.73;;
18338;SDS011;9295;44.484;11.240;2023-01-25T03:45:33;30.93;;;23.10;;
18338;SDS011;9295;44.484;11.240;2023-01-25T03:48:02;33.03;;;22.93;;
18338;SDS011;9295;44.484;11.240;2023-01-25T03:50:31;32.60;;;23.90;;
18338;SDS011;9295;44.484;11.240;2023-01-25T03:53:01;39.10;;;23.87;;
18338;SDS011;9295;44.484;11.240;2023-01-25T03:55:55;33.77;;;22.93;;
18338;SDS011;9295;44.484;11.240;2023-01-25T03:58:25;34.37;;;25.20;;
18338;SDS011;9295;44.484;11.240;2023-01-25T04:00:57;34.90;;;24.67;;
18338;SDS011;9295;44.484;11.240;2023-01-25T04:03:27;33.77;;;25.07;;
18338;SDS011;9295;44.484;11.240;2023-01-25T04:05:58;36.07;;;26.37;;
18338;SDS011;9295;44.484;11.240;2023-01-25T04:08:28;39.93;;;26.00;;
18338;SDS011;9295;44.484;11.240;2023-01-25T04:10:59;36.10;;;26.13;;
18338;SDS011;9295;44.484;11.240;2023-01-25T04:13:29;36.20;;;25.40;;
18338;SDS011;9295;44.484;11.240;2023-01-25T04:16:02;37.40;;;25.90;;
18338;SDS011;9295;44.484;11.240;2023-01-25T04:18:51;35.17;;;26.17;;
18338;SDS011;9295;44.484;11.240;2023-01-25T04:21:20;38.70;;;26.00;;
18338;SDS011;9295;44.484;11.240;2023-01-25T04:23:48;41.60;;;27.00;;
18338;SDS011;9295;44.484;11.240;2023-01-25T04:26:17;34.60;;;24.73;;
18338;SDS011;9295;44.484;11.240;2023-01-25T04:28:52;37.40;;;26.37;;
18338;SDS011;9295;44.484;11.240;2023-01-25T04:31:22;35.80;;;25.20;;
18338;SDS011;9295;44.484;11.240;2023-01-25T04:33:51;37.63;;;27.20;;
18338;SDS011;9295;44.484;11.240;2023-01-25T04:36:19;38.13;;;26.90;;
18338;SDS011;9295;44.484;11.240;2023-01-25T04:38:48;35.37;;;26.00;;
18338;SDS011;9295;44.484;11.240;2023-01-25T04:41:16;39.50;;;27.40;;
18338;SDS011;9295;44.484;11.240;2023-01-25T04:43:45;35.80;;;26.13;;
18338;SDS011;9295;44.484;11.240;2023-01-25T04:46:14;37.60;;;26.67;;
18338;SDS011;9295;44.484;11.240;2023-01-25T04:48:44;40.13;;;26.57;;
18338;SDS011;9295;44.484;11.240;2023-01-25T04:51:14;36.23;;;26.30;;
18338;SDS011;9295;44.484;11.240;2023-01-25T04:53:43;37.93;;;26.30;;
18338;SDS011;9295;44.484;11.240;2023-01-25T04:56:12;39.70;;;27.23;;
18338;SDS011;9295;44.484;11.240;2023-01-25T04:58:46;38.43;;;27.70;;
18338;SDS011;9295;44.484;11.240;2023-01-25T05:01:15;38.80;;;27.07;;
18338;SDS011;9295;44.484;11.240;2023-01-25T05:03:45;40.07;;;27.20;;
18338;SDS011;9295;44.484;11.240;2023-01-25T05:06:31;44.20;;;27.90;;
18338;SDS011;9295;44.484;11.240;2023-01-25T05:09:01;44.67;;;29.40;;
18338;SDS011;9295;44.484;11.240;2023-01-25T05:11:31;44.47;;;28.60;;
18338;SDS011;9295;44.484;11.240;2023-01-25T05:14:23;66.93;;;31.17;;
18338;SDS011;9295;44.484;11.240;2023-01-25T05:16:52;45.10;;;30.43;;
18338;SDS011;9295;44.484;11.240;2023-01-25T05:19:22;44.57;;;30.90;;
18338;SDS011;9295;44.484;11.240;2023-01-25T05:21:58;44.30;;;29.70;;
18338;SDS011;9295;44.484;11.240;2023-01-25T05:24:36;46.47;;;32.17;;
18338;SDS011;9295;44.484;11.240;2023-01-25T05:27:10;54.03;;;32.63;;
18338;SDS011;9295;44.484;11.240;2023-01-25T05:29:53;51.93;;;31.23;;
18338;SDS011;9295;44.484;11.240;2023-01-25T05:32:31;46.23;;;31.93;;
18338;SDS011;9295;44.484;11.240;2023-01-25T05:35:01;47.63;;;30.80;;
18338;SDS011;9295;44.484;11.240;2023-01-25T05:37:30;48.07;;;32.07;;
18338;SDS011;9295;44.484;11.240;2023-01-25T05:40:09;50.50;;;34.57;;
18338;SDS011;9295;44.484;11.240;2023-01-25T05:42:38;56.33;;;35.90;;
18338;SDS011;9295;44.484;11.240;2023-01-25T05:45:15;49.93;;;34.37;;
18338;SDS011;9295;44.484;11.240;2023-01-25T05:47:45;51.90;;;32.87;;
18338;SDS011;9295;44.484;11.240;2023-01-25T05:50:16;54.93;;;34.20;;
18338;SDS011;9295;44.484;11.240;2023-01-25T05:52:58;63.53;;;35.37;;
18338;SDS011;9295;44.484;11.240;2023-01-25T05:55:28;63.53;;;35.07;;
18338;SDS011;9295;44.484;11.240;2023-01-25T05:58:01;54.10;;;34.07;;
18338;SDS011;9295;44.484;11.240;2023-01-25T06:00:31;54.93;;;32.83;;
18338;SDS011;9295;44.484;11.240;2023-01-25T06:03:00;54.20;;;31.90;;
18338;SDS011;9295;44.484;11.240;2023-01-25T06:05:33;53.60;;;33.87;;
18338;SDS011;9295;44.484;11.240;2023-01-25T06:08:02;51.57;;;32.60;;
18338;SDS011;9295;44.484;11.240;2023-01-25T06:10:40;47.20;;;31.90;;
18338;SDS011;9295;44.484;11.240;2023-01-25T06:13:09;48.10;;;29.40;;
18338;SDS011;9295;44.484;11.240;2023-01-25T06:15:37;44.30;;;29.00;;
18338;SDS011;9295;44.484;11.240;2023-01-25T06:18:24;42.83;;;29.07;;
18338;SDS011;9295;44.484;11.240;2023-01-25T06:21:09;46.17;;;29.47;;
18338;SDS011;9295;44.484;11.240;2023-01-25T06:23:37;44.67;;;28.50;;
18338;SDS011;9295;44.484;11.240;2023-01-25T06:26:09;46.20;;;29.50;;
18338;SDS011;9295;44.484;11.240;2023-01-25T06:28:39;44.23;;;28.17;;
18338;SDS011;9295;44.484;11.240;2023-01-25T06:31:08;43.43;;;28.23;;
18338;SDS011;9295;44.484;11.240;2023-01-25T06:33:38;52.77;;;29.43;;
18338;SDS011;9295;44.484;11.240;2023-01-25T06:36:11;46.90;;;29.47;;
18338;SDS011;9295;44.484;11.240;2023-01-25T06:38:40;43.97;;;26.53;;
18338;SDS011;9295;44.484;11.240;2023-01-25T06:41:09;44.07;;;27.97;;
18338;SDS011;9295;44.484;11.240;2023-01-25T06:43:38;43.60;;;28.17;;
18338;SDS011;9295;44.484;11.240;2023-01-25T06:46:08;49.13;;;30.33;;
18338;SDS011;9295;44.484;11.240;2023-01-25T06:48:37;45.43;;;27.80;;
18338;SDS011;9295;44.484;11.240;2023-01-25T06:51:07;44.30;;;28.93;;
18338;SDS011;9295;44.484;11.240;2023-01-25T06:53:40;41.50;;;27.20;;
18338;SDS011;9295;44.484;11.240;2023-01-25T06:56:10;39.40;;;29.23;;
18338;SDS011;9295;44.484;11.240;2023-01-25T06:58:40;44.60;;;28.80;;
18338;SDS011;9295;44.484;11.240;2023-01-25T07:01:11;48.33;;;31.10;;
18338;SDS011;9295;44.484;11.240;2023-01-25T07:03:41;49.13;;;30.07;;
18338;SDS011;9295;44.484;11.240;2023-01-25T07:06:11;46.27;;;30.43;;
18338;SDS011;9295;44.484;11.240;2023-01-25T07:08:39;40.33;;;28.13;;
18338;SDS011;9295;44.484;11.240;2023-01-25T07:11:09;41.57;;;27.90;;
18338;SDS011;9295;44.484;11.240;2023-01-25T07:13:40;46.30;;;28.57;;
18338;SDS011;9295;44.484;11.240;2023-01-25T07:16:12;46.20;;;30.20;;
18338;SDS011;9295;44.484;11.240;2023-01-25T07:18:42;50.77;;;32.30;;
18338;SDS011;9295;44.484;11.240;2023-01-25T07:21:12;52.10;;;29.43;;
18338;SDS011;9295;44.484;11.240;2023-01-25T07:23:42;49.63;;;28.80;;
18338;SDS011;9295;44.484;11.240;2023-01-25T07:26:13;47.60;;;28.37;;
18338;SDS011;9295;44.484;11.240;2023-01-25T07:28:44;47.27;;;27.40;;
18338;SDS011;9295;44.484;11.240;2023-01-25T07:31:13;46.73;;;29.83;;
18338;SDS011;9295;44.484;11.240;2023-01-25T07:33:43;43.23;;;29.10;;
18338;SDS011;9295;44.484;11.240;2023-01-25T07:36:16;44.00;;;29.57;;
18338;SDS011;9295;44.484;11.240;2023-01-25T07:38:45;46.60;;;28.67;;
18338;SDS011;9295;44.484;11.240;2023-01-25T07:41:14;38.60;;;27.10;;
18338;SDS011;9295;44.484;11.240;2023-01-25T07:43:42;47.90;;;27.90;;
18338;SDS011;9295;44.484;11.240;2023-01-25T07:46:17;40.93;;;27.97;;
18338;SDS011;9295;44.484;11.240;2023-01-25T07:48:46;35.17;;;26.17;;
18338;SDS011;9295;44.484;11.240;2023-01-25T07:51:18;40.60;;;25.50;;
18338;SDS011;9295;44.484;11.240;2023-01-25T07:53:53;36.10;;;25.13;;
18338;SDS011;9295;44.484;11.240;2023-01-25T07:56:23;39.23;;;26.87;;
18338;SDS011;9295;44.484;11.240;2023-01-25T07:58:53;38.33;;;25.53;;
18338;SDS011;9295;44.484;11.240;2023-01-25T08:01:23;33.93;;;24.00;;
18338;SDS011;9295;44.484;11.240;2023-01-25T08:03:53;57.07;;;26.87;;
18338;SDS011;9295;44.484;11.240;2023-01-25T08:06:24;39.43;;;26.80;;
18338;SDS011;9295;44.484;11.240;2023-01-25T08:08:57;39.50;;;25.47;;
18338;SDS011;9295;44.484;11.240;2023-01-25T08:11:26;40.63;;;25.00;;
18338;SDS011;9295;44.484;11.240;2023-01-25T08:13:56;34.97;;;25.20;;
18338;SDS011;9295;44.484;11.240;2023-01-25T08:16:27;31.37;;;23.00;;
18338;SDS011;9295;44.484;11.240;2023-01-25T08:18:58;30.13;;;22.30;;
18338;SDS011;9295;44.484;11.240;2023-01-25T08:21:31;28.23;;;20.57;;
18338;SDS011;9295;44.484;11.240;2023-01-25T08:24:01;29.37;;;21.27;;
18338;SDS011;9295;44.484;11.240;2023-01-25T08:26:31;28.13;;;20.30;;
18338;SDS011;9295;44.484;11.240;2023-01-25T08:29:00;26.20;;;19.13;;
18338;SDS011;9295;44.484;11.240;2023-01-25T08:31:30;32.43;;;19.97;;
18338;SDS011;9295;44.484;11.240;2023-01-25T08:34:00;25.83;;;18.93;;
18338;SDS011;9295;44.484;11.240;2023-01-25T08:36:28;24.40;;;18.27;;
18338;SDS011;9295;44.484;11.240;2023-01-25T08:38:59;28.77;;;18.40;;
18338;SDS011;9295;44.484;11.240;2023-01-25T08:41:29;24.77;;;18.00;;
18338;SDS011;9295;44.484;11.240;2023-01-25T08:43:59;24.30;;;17.30;;
18338;SDS011;9295;44.484;11.240;2023-01-25T08:46:28;25.83;;;19.10;;
18338;SDS011;9295;44.484;11.240;2023-01-25T08:48:59;25.23;;;18.13;;
18338;SDS011;9295;44.484;11.240;2023-01-25T08:51:29;30.37;;;19.67;;
18338;SDS011;9295;44.484;11.240;2023-01-25T08:54:02;27.00;;;19.43;;
18338;SDS011;9295;44.484;11.240;2023-01-25T08:56:32;25.83;;;17.80;;
18338;SDS011;9295;44.484;11.240;2023-01-25T08:59:03;28.43;;;18.17;;
18338;SDS011;9295;44.484;11.240;2023-01-25T09:01:31;25.20;;;18.40;;
18338;SDS011;9295;44.484;11.240;2023-01-25T09:04:00;26.87;;;18.23;;
18338;SDS011;9295;44.484;11.240;2023-01-25T09:06:29;26.50;;;18.87;;
18338;SDS011;9295;44.484;11.240;2023-01-25T09:08:59;26.73;;;18.13;;
18338;SDS011;9295;44.484;11.240;2023-01-25T09:11:27;24.90;;;16.80;;
18338;SDS011;9295;44.484;11.240;2023-01-25T09:13:56;24.47;;;17.47;;
18338;SDS011;9295;44.484;11.240;2023-01-25T09:16:24;26.47;;;15.33;;
18338;SDS011;9295;44.484;11.240;2023-01-25T09:18:56;25.27;;;17.20;;
18338;SDS011;9295;44.484;11.240;2023-01-25T09:21:27;27.00;;;18.37;;
18338;SDS011;9295;44.484;11.240;2023-01-25T09:23:57;26.17;;;16.80;;
18338;SDS011;9295;44.484;11.240;2023-01-25T09:26:35;25.30;;;17.23;;
18338;SDS011;9295;44.484;11.240;2023-01-25T09:29:05;27.20;;;16.77;;
18338;SDS011;9295;44.484;11.240;2023-01-25T09:31:35;32.53;;;16.80;;
18338;SDS011;9295;44.484;11.240;2023-01-25T09:34:32;20.90;;;15.70;;
18338;SDS011;9295;44.484;11.240;2023-01-25T09:37:01;30.93;;;16.73;;
18338;SDS011;9295;44.484;11.240;2023-01-25T09:39:31;24.93;;;16.37;;
18338;SDS011;9295;44.484;11.240;2023-01-25T09:45:04;28.43;;;17.20;;
18338;SDS011;9295;44.484;11.240;2023-01-25T09:47:41;25.30;;;15.50;;
18338;SDS011;9295;44.484;11.240;2023-01-25T09:50:31;27.97;;;15.00;;
18338;SDS011;9295;44.484;11.240;2023-01-25T09:55:56;26.80;;;15.80;;
18338;SDS011;9295;44.484;11.240;2023-01-25T09:58:31;21.97;;;14.37;;
18338;SDS011;9295;44.484;11.240;2023-01-25T10:01:08;19.70;;;13.20;;
18338;SDS011;9295;44.484;11.240;2023-01-25T10:04:04;24.23;;;13.50;;
18338;SDS011;9295;44.484;11.240;2023-01-25T10:06:39;27.60;;;14.80;;
18338;SDS011;9295;44.484;11.240;2023-01-25T10:09:27;26.27;;;14.57;;
18338;SDS011;9295;44.484;11.240;2023-01-25T10:12:05;23.47;;;14.43;;
18338;SDS011;9295;44.484;11.240;2023-01-25T10:14:41;19.83;;;14.20;;
18338;SDS011;9295;44.484;11.240;2023-01-25T10:17:12;21.17;;;14.33;;
18338;SDS011;9295;44.484;11.240;2023-01-25T10:19:56;24.87;;;15.07;;
18338;SDS011;9295;44.484;11.240;2023-01-25T10:22:37;27.50;;;14.00;;
18338;SDS011;9295;44.484;11.240;2023-01-25T10:25:24;23.63;;;13.00;;
18338;SDS011;9295;44.484;11.240;2023-01-25T10:28:08;24.33;;;13.67;;
18338;SDS011;9295;44.484;11.240;2023-01-25T10:30:52;18.90;;;12.47;;
18338;SDS011;9295;44.484;11.240;2023-01-25T10:33:25;25.50;;;14.10;;
18338;SDS011;9295;44.484;11.240;2023-01-25T10:35:56;19.77;;;13.70;;
18338;SDS011;9295;44.484;11.240;2023-01-25T10:38:28;25.77;;;13.47;;
18338;SDS011;9295;44.484;11.240;2023-01-25T10:41:03;25.10;;;14.97;;
18338;SDS011;9295;44.484;11.240;2023-01-25T10:43:35;25.23;;;16.27;;
18338;SDS011;9295;44.484;11.240;2023-01-25T10:46:08;22.30;;;14.07;;
18338;SDS011;9295;44.484;11.240;2023-01-25T10:48:45;21.40;;;14.77;;
18338;SDS011;9295;44.484;11.240;2023-01-25T10:51:27;21.83;;;14.23;;
18338;SDS011;9295;44.484;11.240;2023-01-25T10:54:00;25.87;;;15.43;;
18338;SDS011;9295;44.484;11.240;2023-01-25T10:56:31;23.47;;;16.13;;
18338;SDS011;9295;44.484;11.240;2023-01-25T10:59:06;23.60;;;13.90;;
18338;SDS011;9295;44.484;11.240;2023-01-25T11:01:47;26.10;;;15.00;;
18338;SDS011;9295;44.484;11.240;2023-01-25T11:04:23;26.20;;;15.67;;
18338;SDS011;9295;44.484;11.240;2023-01-25T11:07:01;25.30;;;15.47;;
18338;SDS011;9295;44.484;11.240;2023-01-25T11:09:35;20.57;;;14.10;;
18338;SDS011;9295;44.484;11.240;2023-01-25T11:12:15;25.47;;;14.23;;
18338;SDS011;9295;44.484;11.240;2023-01-25T11:14:47;23.03;;;15.47;;
18338;SDS011;9295;44.484;11.240;2023-01-25T11:17:21;32.87;;;15.10;;
18338;SDS011;9295;44.484;11.240;2023-01-25T11:22:49;23.23;;;15.07;;
18338;SDS011;9295;44.484;11.240;2023-01-25T11:25:27;26.93;;;15.33;;
18338;SDS011;9295;44.484;11.240;2023-01-25T11:28:09;27.67;;;16.80;;
18338;SDS011;9295;44.484;11.240;2023-01-25T11:30:44;30.33;;;16.87;;
18338;SDS011;9295;44.484;11.240;2023-01-25T11:33:14;23.50;;;15.20;;
18338;SDS011;9295;44.484;11.240;2023-01-25T11:35:51;30.23;;;16.10;;
18338;SDS011;9295;44.484;11.240;2023-01-25T11:38:36;27.23;;;14.47;;
18338;SDS011;9295;44.484;11.240;2023-01-25T11:41:11;24.90;;;16.37;;
18338;SDS011;9295;44.484;11.240;2023-01-25T11:43:55;22.30;;;15.30;;
18338;SDS011;9295;44.484;11.240;2023-01-25T11:46:41;23.97;;;15.83;;
18338;SDS011;9295;44.484;11.240;2023-01-25T11:49:24;22.13;;;14.63;;
18338;SDS011;9295;44.484;11.240;2023-01-25T11:52:04;24.50;;;15.20;;
18338;SDS011;9295;44.484;11.240;2023-01-25T11:54:44;26.00;;;16.57;;
18338;SDS011;9295;44.484;11.240;2023-01-25T12:00:19;21.20;;;14.40;;
18338;SDS011;9295;44.484;11.240;2023-01-25T12:06:13;26.13;;;16.60;;
18338;SDS011;9295;44.484;11.240;2023-01-25T12:08:55;25.27;;;16.20;;
18338;SDS011;9295;44.484;11.240;2023-01-25T12:11:35;26.47;;;16.33;;
18338;SDS011;9295;44.484;11.240;2023-01-25T12:14:18;29.83;;;18.30;;
18338;SDS011;9295;44.484;11.240;2023-01-25T12:17:00;29.30;;;17.57;;
18338;SDS011;9295;44.484;11.240;2023-01-25T12:19:45;30.53;;;16.50;;
18338;SDS011;9295;44.484;11.240;2023-01-25T12:22:42;33.90;;;19.30;;
18338;SDS011;9295;44.484;11.240;2023-01-25T12:25:23;24.50;;;17.90;;
18338;SDS011;9295;44.484;11.240;2023-01-25T12:28:06;26.53;;;18.60;;
18338;SDS011;9295;44.484;11.240;2023-01-25T12:30:41;28.30;;;18.20;;
18338;SDS011;9295;44.484;11.240;2023-01-25T12:33:18;31.50;;;16.07;;
18338;SDS011;9295;44.484;11.240;2023-01-25T12:35:52;29.47;;;17.40;;
18338;SDS011;9295;44.484;11.240;2023-01-25T12:38:28;28.33;;;18.27;;
18338;SDS011;9295;44.484;11.240;2023-01-25T12:41:03;30.80;;;19.13;;
18338;SDS011;9295;44.484;11.240;2023-01-25T12:43:39;28.57;;;17.53;;
18338;SDS011;9295;44.484;11.240;2023-01-25T12:46:13;29.30;;;19.30;;
18338;SDS011;9295;44.484;11.240;2023-01-25T12:48:48;29.27;;;18.43;;
18338;SDS011;9295;44.484;11.240;2023-01-25T12:51:20;32.20;;;21.47;;
18338;SDS011;9295;44.484;11.240;2023-01-25T12:53:52;28.60;;;18.57;;
18338;SDS011;9295;44.484;11.240;2023-01-25T12:56:26;31.57;;;19.87;;
18338;SDS011;9295;44.484;11.240;2023-01-25T12:59:00;40.57;;;20.80;;
18338;SDS011;9295;44.484;11.240;2023-01-25T13:01:34;28.20;;;19.70;;
18338;SDS011;9295;44.484;11.240;2023-01-25T13:04:15;31.23;;;18.37;;
18338;SDS011;9295;44.484;11.240;2023-01-25T13:06:53;28.33;;;18.53;;
18338;SDS011;9295;44.484;11.240;2023-01-25T13:09:31;32.13;;;20.10;;
18338;SDS011;9295;44.484;11.240;2023-01-25T13:12:08;33.53;;;22.00;;
18338;SDS011;9295;44.484;11.240;2023-01-25T13:14:38;31.93;;;20.30;;
18338;SDS011;9295;44.484;11.240;2023-01-25T13:17:16;29.77;;;19.10;;
18338;SDS011;9295;44.484;11.240;2023-01-25T13:19:48;29.53;;;19.23;;
18338;SDS011;9295;44.484;11.240;2023-01-25T13:25:25;32.20;;;20.37;;
18338;SDS011;9295;44.484;11.240;2023-01-25T13:30:59;30.57;;;18.97;;
18338;SDS011;9295;44.484;11.240;2023-01-25T13:33:32;28.67;;;16.90;;
18338;SDS011;9295;44.484;11.240;2023-01-25T13:42:18;35.27;;;18.60;;
18338;SDS011;9295;44.484;11.240;2023-01-25T13:44:49;32.00;;;20.00;;
18338;SDS011;9295;44.484;11.240;2023-01-25T13:47:21;28.63;;;17.97;;
18338;SDS011;9295;44.484;11.240;2023-01-25T13:49:53;30.10;;;19.03;;
18338;SDS011;9295;44.484;11.240;2023-01-25T13:52:24;25.00;;;17.00;;
18338;SDS011;9295;44.484;11.240;2023-01-25T13:54:57;28.33;;;17.80;;
18338;SDS011;9295;44.484;11.240;2023-01-25T13:57:28;28.60;;;19.10;;
18338;SDS011;9295;44.484;11.240;2023-01-25T14:00:02;34.17;;;19.40;;
18338;SDS011;9295;44.484;11.240;2023-01-25T14:02:37;31.30;;;19.60;;
18338;SDS011;9295;44.484;11.240;2023-01-25T14:05:15;34.37;;;20.73;;
18338;SDS011;9295;44.484;11.240;2023-01-25T14:07:45;28.63;;;20.03;;
18338;SDS011;9295;44.484;11.240;2023-01-25T14:10:17;30.27;;;19.40;;
18338;SDS011;9295;44.484;11.240;2023-01-25T14:12:51;32.87;;;19.57;;
18338;SDS011;9295;44.484;11.240;2023-01-25T14:15:25;36.60;;;20.53;;
18338;SDS011;9295;44.484;11.240;2023-01-25T14:18:08;32.53;;;20.57;;
18338;SDS011;9295;44.484;11.240;2023-01-25T14:20:40;30.70;;;20.40;;
18338;SDS011;9295;44.484;11.240;2023-01-25T14:23:19;27.73;;;18.60;;
18338;SDS011;9295;44.484;11.240;2023-01-25T14:25:49;34.93;;;19.33;;
18338;SDS011;9295;44.484;11.240;2023-01-25T14:28:20;31.80;;;19.63;;
18338;SDS011;9295;44.484;11.240;2023-01-25T14:30:49;31.17;;;20.67;;
18338;SDS011;9295;44.484;11.240;2023-01-25T14:33:21;35.23;;;21.03;;
18338;SDS011;9295;44.484;11.240;2023-01-25T14:35:52;33.70;;;22.83;;
18338;SDS011;9295;44.484;11.240;2023-01-25T14:38:28;39.13;;;24.03;;
18338;SDS011;9295;44.484;11.240;2023-01-25T14:41:02;32.60;;;22.43;;
18338;SDS011;9295;44.484;11.240;2023-01-25T14:43:40;42.67;;;22.93;;
18338;SDS011;9295;44.484;11.240;2023-01-25T14:46:24;36.10;;;23.10;;
18338;SDS011;9295;44.484;11.240;2023-01-25T14:49:08;33.33;;;22.03;;
18338;SDS011;9295;44.484;11.240;2023-01-25T14:51:53;35.00;;;22.60;;
18338;SDS011;9295;44.484;11.240;2023-01-25T14:54:26;33.73;;;22.93;;
18338;SDS011;9295;44.484;11.240;2023-01-25T14:56:57;34.87;;;21.97;;
18338;SDS011;9295;44.484;11.240;2023-01-25T14:59:31;37.30;;;22.10;;
18338;SDS011;9295;44.484;11.240;2023-01-25T15:02:03;36.17;;;24.80;;
18338;SDS011;9295;44.484;11.240;2023-01-25T15:04:51;35.70;;;22.57;;
18338;SDS011;9295;44.484;11.240;2023-01-25T15:07:35;36.30;;;23.60;;
18338;SDS011;9295;44.484;11.240;2023-01-25T15:10:17;34.90;;;22.47;;
18338;SDS011;9295;44.484;11.240;2023-01-25T15:12:55;42.00;;;22.37;;
18338;SDS011;9295;44.484;11.240;2023-01-25T15:15:50;33.70;;;23.17;;
18338;SDS011;9295;44.484;11.240;2023-01-25T15:21:08;38.47;;;25.87;;
18338;SDS011;9295;44.484;11.240;2023-01-25T15:23:38;36.97;;;25.17;;
18338;SDS011;9295;44.484;11.240;2023-01-25T15:26:12;45.63;;;28.27;;